Time;durP1;ratioP1;P1;durP2;ratioP2;P2;SDS_P1;SDS_P2;PMS_P1;PMS_P2;Temp;Humidity;BMP_temperature;BMP_pressure;BME280_temperature;BME280_humidity;BME280_pressure;Samples;Min_cycle;Max_cycle;Signal;HPM_P1;HPM_P2
2022/01/14 00:00:24;;;;;;;4.10;2.78;;;7.50;70.40;;;;;;4954866;28;20038;-73
2022/01/14 00:02:50;;;;;;;4.53;2.85;;;7.40;70.60;;;;;;5000341;28;20106;-73
2022/01/14 00:05:15;;;;;;;4.07;2.88;;;7.40;70.90;;;;;;4999168;28;20117;-74
2022/01/14 00:07:41;;;;;;;3.90;2.97;;;7.40;70.90;;;;;;4998683;28;20030;-73
2022/01/14 00:10:08;;;;;;;4.75;2.80;;;7.40;70.60;;;;;;4998016;28;20038;-74
2022/01/14 00:12:39;;;;;;;4.20;3.00;;;7.40;70.70;;;;;;4995661;28;20022;-74
2022/01/14 00:15:38;;;;;;;5.53;3.28;;;7.40;70.60;;;;;;4998417;28;20080;-73
2022/01/14 00:17:57;;;;;;;4.75;3.00;;;7.40;70.80;;;;;;4996245;28;20050;-73
2022/01/14 00:20:23;;;;;;;3.95;2.78;;;7.30;70.50;;;;;;4998606;28;20033;-73
2022/01/14 00:22:49;;;;;;;3.47;2.55;;;7.30;70.90;;;;;;4998621;28;20065;-73
2022/01/14 00:33:10;;;;;;;3.47;2.70;;;7.20;70.60;;;;;;4993499;28;20033;-73
2022/01/14 00:35:40;;;;;;;3.85;2.60;;;7.10;71.60;;;;;;4996990;28;20048;-73
2022/01/14 00:38:07;;;;;;;4.10;3.10;;;7.10;70.50;;;;;;5002912;28;20101;-73
2022/01/14 00:40:33;;;;;;;4.45;2.85;;;7.00;71.80;;;;;;4998625;28;20395;-73
2022/01/14 00:42:59;;;;;;;4.07;2.88;;;6.90;70.90;;;;;;5003906;28;20026;-73
2022/01/14 00:45:25;;;;;;;4.32;3.10;;;7.00;71.30;;;;;;5010256;28;20021;-73
2022/01/14 00:47:51;;;;;;;4.85;2.97;;;7.00;71.00;;;;;;4995163;28;20543;-73
2022/01/14 00:50:18;;;;;;;5.10;3.30;;;7.00;71.30;;;;;;4994075;28;20034;-73
2022/01/14 00:52:45;;;;;;;5.47;3.28;;;6.90;70.90;;;;;;4995421;28;20026;-73
2022/01/14 00:55:15;;;;;;;4.88;3.10;;;6.90;71.20;;;;;;5005213;28;20029;-73
2022/01/14 01:00:37;;;;;;;4.63;3.13;;;6.90;71.70;;;;;;5008913;28;20018;-72
2022/01/14 01:03:03;;;;;;;6.50;4.20;;;6.80;71.40;;;;;;4998012;28;20130;-73
2022/01/14 01:05:29;;;;;;;5.90;4.10;;;6.80;71.40;;;;;;5003412;28;20041;-73
2022/01/14 01:08:09;;;;;;;5.88;3.75;;;6.70;71.30;;;;;;5000841;28;20033;-73
2022/01/14 01:10:35;;;;;;;6.28;4.45;;;6.70;71.30;;;;;;4994221;28;20081;-73
2022/01/14 01:13:19;;;;;;;6.50;4.55;;;6.50;71.00;;;;;;4996408;28;20022;-73
2022/01/14 01:15:45;;;;;;;7.07;4.53;;;6.50;71.80;;;;;;4995640;28;20027;-73
2022/01/14 01:18:11;;;;;;;7.85;4.80;;;6.30;71.10;;;;;;4992637;28;20065;-73
2022/01/14 01:20:37;;;;;;;7.10;5.03;;;6.20;71.90;;;;;;4995406;28;20401;-74
2022/01/14 01:23:04;;;;;;;8.02;5.38;;;6.20;71.90;;;;;;4995401;28;20161;-73
2022/01/14 01:25:38;;;;;;;9.52;6.05;;;6.10;72.10;;;;;;4995364;28;20029;-74
2022/01/14 01:28:04;;;;;;;8.93;5.70;;;6.00;72.10;;;;;;4995595;28;20022;-73
2022/01/14 01:32:57;;;;;;;8.32;5.65;;;5.80;72.40;;;;;;4993753;28;20073;-73
2022/01/14 01:35:23;;;;;;;11.05;6.57;;;5.80;72.90;;;;;;4995160;28;20058;-73
2022/01/14 01:37:49;;;;;;;8.45;6.18;;;5.80;73.10;;;;;;4995251;28;20405;-73
2022/01/14 01:40:15;;;;;;;8.98;5.40;;;5.80;73.30;;;;;;5004421;28;20088;-73
2022/01/14 01:42:44;;;;;;;8.07;5.55;;;5.80;73.40;;;;;;4993669;28;20029;-73
2022/01/14 01:45:12;;;;;;;8.75;5.78;;;5.80;73.60;;;;;;5008293;28;20131;-73
2022/01/14 01:47:39;;;;;;;8.45;5.65;;;6.00;73.90;;;;;;4997864;28;20034;-73
2022/01/14 01:50:13;;;;;;;10.15;5.93;;;5.90;73.00;;;;;;4997849;28;20043;-73
2022/01/14 01:52:39;;;;;;;10.95;6.55;;;5.90;74.20;;;;;;4997906;28;20030;-73
2022/01/14 01:55:06;;;;;;;10.02;6.78;;;5.80;73.10;;;;;;4996624;28;20092;-73
2022/01/14 01:57:32;;;;;;;10.38;6.53;;;5.80;73.30;;;;;;4994585;28;20049;-73
2022/01/14 01:59:58;;;;;;;12.50;7.55;;;5.80;73.50;;;;;;4996769;28;20031;-73
2022/01/14 02:02:23;;;;;;;11.82;7.13;;;5.70;73.40;;;;;;4997257;28;20034;-73
2022/01/14 02:04:49;;;;;;;11.38;7.18;;;5.70;73.80;;;;;;4997942;28;20053;-73
2022/01/14 02:07:15;;;;;;;11.88;7.32;;;5.70;73.60;;;;;;4997706;28;20510;-73
2022/01/14 02:09:41;;;;;;;10.63;6.30;;;5.70;74.30;;;;;;4994016;28;20018;-73
2022/01/14 02:12:08;;;;;;;14.13;7.82;;;5.70;74.00;;;;;;5000398;28;20035;-73
2022/01/14 02:19:30;;;;;;;15.18;8.02;;;5.40;74.20;;;;;;5006722;28;20117;-73
2022/01/14 02:22:14;;;;;;;14.63;8.65;;;5.40;74.50;;;;;;5004885;28;20064;-73
2022/01/14 02:27:15;;;;;;;13.20;8.27;;;5.40;75.10;;;;;;5015742;28;20032;-74
2022/01/14 02:29:40;;;;;;;11.95;7.15;;;5.30;75.00;;;;;;5001581;28;20073;-73
2022/01/14 02:32:07;;;;;;;12.05;6.85;;;5.40;75.20;;;;;;5003042;28;20161;-73
2022/01/14 02:34:33;;;;;;;14.30;7.55;;;5.50;75.60;;;;;;5002028;28;20034;-73
2022/01/14 02:36:59;;;;;;;14.60;7.85;;;5.40;75.00;;;;;;4999369;28;20033;-73
2022/01/14 02:39:24;;;;;;;14.07;8.60;;;5.40;74.80;;;;;;4996620;28;20030;-73
2022/01/14 02:41:51;;;;;;;14.43;8.27;;;5.50;75.30;;;;;;4997660;28;20030;-73
2022/01/14 02:44:24;;;;;;;14.85;7.95;;;5.40;74.90;;;;;;4998260;28;20542;-73
2022/01/14 02:46:56;;;;;;;13.20;7.95;;;5.30;74.90;;;;;;4997936;28;20064;-73
2022/01/14 02:49:27;;;;;;;12.95;7.32;;;5.50;75.40;;;;;;4998096;28;20117;-73
2022/01/14 02:51:53;;;;;;;15.35;8.77;;;5.40;76.00;;;;;;4997857;28;20504;-73
2022/01/14 02:54:22;;;;;;;14.82;8.65;;;5.40;75.00;;;;;;5013247;28;20026;-73
2022/01/14 02:56:52;;;;;;;13.02;7.88;;;5.40;75.50;;;;;;4997795;28;20030;-73
2022/01/14 02:59:19;;;;;;;13.68;7.22;;;5.40;75.70;;;;;;5002463;28;20031;-73
2022/01/14 03:01:48;;;;;;;14.48;7.65;;;5.60;75.90;;;;;;5000158;28;20070;-73
2022/01/14 03:04:15;;;;;;;13.30;7.70;;;5.60;75.60;;;;;;5000508;28;20037;-73
2022/01/14 03:06:41;;;;;;;12.63;7.68;;;5.60;75.00;;;;;;4997940;28;20018;-73
2022/01/14 03:09:07;;;;;;;13.30;7.40;;;5.60;75.20;;;;;;4995330;28;20034;-73
2022/01/14 03:11:51;;;;;;;14.18;7.97;;;5.60;75.30;;;;;;4997470;28;20412;-73
2022/01/14 03:14:23;;;;;;;14.27;7.78;;;5.70;75.40;;;;;;4997274;28;20026;-73
2022/01/14 03:16:54;;;;;;;12.95;7.43;;;5.60;75.10;;;;;;4997707;28;20034;-73
2022/01/14 03:19:25;;;;;;;13.68;8.00;;;5.70;75.40;;;;;;4996152;28;20027;-73
2022/01/14 03:21:53;;;;;;;16.58;9.38;;;5.70;75.40;;;;;;4997642;28;20033;-73
2022/01/14 03:26:47;;;;;;;14.65;8.27;;;5.50;75.30;;;;;;4997084;28;20029;-73
2022/01/14 03:29:14;;;;;;;13.10;7.78;;;5.50;75.50;;;;;;4995554;28;20099;-73
2022/01/14 03:31:40;;;;;;;14.40;8.45;;;5.40;75.30;;;;;;4997118;28;20031;-73
2022/01/14 03:34:06;;;;;;;14.93;8.68;;;5.40;75.90;;;;;;4997487;28;20038;-73
2022/01/14 03:36:32;;;;;;;14.95;8.43;;;5.40;75.70;;;;;;4995801;28;20046;-73
2022/01/14 03:38:58;;;;;;;14.73;8.25;;;5.40;75.90;;;;;;4996178;28;20388;-73
2022/01/14 03:41:23;;;;;;;15.30;8.63;;;5.40;75.60;;;;;;4997208;28;20026;-73
2022/01/14 03:43:49;;;;;;;15.80;9.13;;;5.40;75.90;;;;;;4995226;28;20027;-73
2022/01/14 03:46:15;;;;;;;15.30;8.40;;;5.40;75.80;;;;;;4997164;28;20057;-73
2022/01/14 03:48:40;;;;;;;18.05;9.88;;;5.30;75.80;;;;;;4997029;28;20026;-73
2022/01/14 03:51:06;;;;;;;20.70;11.45;;;5.30;75.60;;;;;;4994557;28;20538;-73
2022/01/14 03:53:32;;;;;;;18.63;10.65;;;5.20;75.80;;;;;;4996897;28;20034;-73
2022/01/14 03:55:58;;;;;;;20.33;11.10;;;5.20;76.60;;;;;;4996847;28;20026;-73
2022/01/14 03:58:24;;;;;;;20.75;11.73;;;5.10;76.20;;;;;;4996562;28;20026;-73
2022/01/14 04:00:50;;;;;;;22.75;11.98;;;4.90;76.50;;;;;;4996859;28;20155;-73
2022/01/14 04:03:15;;;;;;;21.08;11.63;;;4.80;76.90;;;;;;4994394;28;20096;-73
2022/01/14 04:05:41;;;;;;;25.02;13.10;;;4.80;77.60;;;;;;4996275;28;20132;-73
2022/01/14 04:08:07;;;;;;;20.92;11.20;;;4.80;77.70;;;;;;4996582;28;20487;-73
2022/01/14 04:10:32;;;;;;;21.35;11.88;;;4.70;78.00;;;;;;4997499;28;20511;-73
2022/01/14 04:13:03;;;;;;;18.05;10.02;;;4.80;78.20;;;;;;4996855;28;20085;-73
2022/01/14 04:15:44;;;;;;;20.25;10.85;;;4.80;78.30;;;;;;4995256;28;20124;-74
2022/01/14 04:18:15;;;;;;;18.40;9.80;;;5.00;78.50;;;;;;5009698;28;20120;-73
2022/01/14 04:20:42;;;;;;;18.50;9.82;;;5.10;78.30;;;;;;4995543;28;20057;-73
2022/01/14 04:23:08;;;;;;;16.73;9.35;;;5.10;77.90;;;;;;4996320;28;20022;-73
2022/01/14 04:25:35;;;;;;;17.52;9.65;;;5.20;78.20;;;;;;4996306;28;20480;-73
2022/01/14 04:28:05;;;;;;;16.42;9.02;;;5.20;77.70;;;;;;4996239;28;20037;-73
2022/01/14 04:30:31;;;;;;;17.60;10.70;;;5.20;77.60;;;;;;4994505;28;20030;-73
2022/01/14 04:32:58;;;;;;;17.08;9.02;;;5.20;77.50;;;;;;4994928;28;20102;-73
2022/01/14 04:35:24;;;;;;;20.17;10.77;;;5.10;77.30;;;;;;4995529;28;20515;-73
2022/01/14 04:37:50;;;;;;;18.85;10.18;;;5.10;77.60;;;;;;4996078;28;20484;-73
2022/01/14 04:40:16;;;;;;;17.77;9.77;;;5.10;77.50;;;;;;4996094;28;20041;-73
2022/01/14 04:42:43;;;;;;;17.40;9.82;;;5.10;77.70;;;;;;4995809;28;20021;-73
2022/01/14 04:45:12;;;;;;;17.77;10.00;;;5.20;77.70;;;;;;5009136;28;20436;-73
2022/01/14 04:47:44;;;;;;;16.95;9.23;;;5.20;77.40;;;;;;4998552;28;20065;-73
2022/01/14 04:50:16;;;;;;;17.48;9.70;;;5.20;77.60;;;;;;4998618;28;20046;-73
2022/01/14 04:52:43;;;;;;;17.35;9.45;;;5.20;77.60;;;;;;4997085;28;20030;-73
2022/01/14 04:55:11;;;;;;;18.35;9.45;;;5.20;77.50;;;;;;4997786;28;20026;-74
2022/01/14 04:57:36;;;;;;;18.98;9.95;;;5.30;77.80;;;;;;4994482;28;20080;-73
2022/01/14 05:00:09;;;;;;;18.90;10.65;;;5.30;77.60;;;;;;4996350;28;20030;-73
2022/01/14 05:02:36;;;;;;;16.60;9.77;;;5.20;77.30;;;;;;4998507;28;20567;-73
2022/01/14 05:05:03;;;;;;;17.85;9.77;;;5.20;77.50;;;;;;4998459;28;20011;-73
2022/01/14 05:07:29;;;;;;;17.13;8.70;;;5.30;77.80;;;;;;4998101;28;20527;-73
2022/01/14 05:10:16;;;;;;;16.02;9.75;;;5.30;77.00;;;;;;4995694;28;20082;-74
2022/01/14 05:12:42;;;;;;;19.23;10.10;;;5.30;77.20;;;;;;4995712;28;20077;-73
2022/01/14 05:15:09;;;;;;;16.65;9.32;;;5.20;77.20;;;;;;4993139;28;20106;-74
2022/01/14 05:17:35;;;;;;;22.67;11.65;;;5.10;77.20;;;;;;4995530;28;20042;-74
2022/01/14 05:20:02;;;;;;;21.38;11.35;;;5.00;77.20;;;;;;4995414;28;20026;-73
2022/01/14 05:22:28;;;;;;;19.10;9.55;;;4.90;77.30;;;;;;4995306;28;20042;-74
2022/01/14 05:24:54;;;;;;;18.55;10.57;;;4.80;77.50;;;;;;4995132;28;20025;-73
2022/01/14 05:27:20;;;;;;;17.40;9.70;;;4.80;77.80;;;;;;4993447;28;20034;-73
2022/01/14 05:29:46;;;;;;;22.20;11.57;;;4.80;77.80;;;;;;4994762;28;20105;-73
2022/01/14 05:32:14;;;;;;;18.58;10.43;;;4.80;78.20;;;;;;4995252;28;20130;-73
2022/01/14 05:34:41;;;;;;;19.05;10.82;;;4.80;78.30;;;;;;4994865;28;20077;-73
2022/01/14 05:37:07;;;;;;;17.23;9.63;;;4.70;78.20;;;;;;4995411;28;20117;-73
2022/01/14 05:39:34;;;;;;;19.98;10.50;;;4.70;78.30;;;;;;4993536;28;20029;-73
2022/01/14 05:42:00;;;;;;;22.92;11.60;;;4.80;78.60;;;;;;4993786;28;20041;-73
2022/01/14 05:44:27;;;;;;;19.42;10.73;;;4.70;77.90;;;;;;4993944;28;20034;-73
2022/01/14 05:46:53;;;;;;;23.17;12.48;;;4.70;78.10;;;;;;4996716;28;20042;-73
2022/01/14 05:49:19;;;;;;;20.92;10.38;;;4.50;77.60;;;;;;4999304;28;20038;-73
2022/01/14 05:51:46;;;;;;;21.75;12.38;;;4.60;79.00;;;;;;4999143;28;20035;-73
2022/01/14 05:54:13;;;;;;;20.98;11.27;;;4.70;79.10;;;;;;4996442;28;20037;-73
2022/01/14 05:56:38;;;;;;;16.98;9.93;;;4.60;78.50;;;;;;4998851;28;20070;-73
2022/01/14 05:59:04;;;;;;;16.65;9.57;;;4.70;79.80;;;;;;4997756;28;20061;-73
2022/01/14 06:01:30;;;;;;;17.85;10.02;;;4.80;79.10;;;;;;4999128;28;20085;-73
2022/01/14 06:04:00;;;;;;;16.83;9.55;;;4.80;79.00;;;;;;4998909;28;20034;-73
2022/01/14 06:06:26;;;;;;;20.17;10.13;;;4.90;78.90;;;;;;4996858;28;20385;-73
2022/01/14 06:08:51;;;;;;;18.83;9.68;;;5.00;78.40;;;;;;4997919;28;20031;-73
2022/01/14 06:11:18;;;;;;;19.48;10.10;;;5.00;78.40;;;;;;4997265;28;20041;-73
2022/01/14 06:13:44;;;;;;;17.45;8.85;;;5.00;78.20;;;;;;4998693;28;20030;-73
2022/01/14 06:16:09;;;;;;;18.83;10.32;;;5.10;78.10;;;;;;4997323;28;20027;-73
2022/01/14 06:18:35;;;;;;;18.08;10.43;;;5.10;77.80;;;;;;4997693;28;20486;-73
2022/01/14 06:21:01;;;;;;;20.17;10.57;;;5.10;78.20;;;;;;4996948;28;20030;-73
2022/01/14 06:23:27;;;;;;;17.73;9.48;;;5.10;78.00;;;;;;4998238;28;20480;-74
2022/01/14 06:25:52;;;;;;;16.67;9.50;;;5.10;77.90;;;;;;4998577;28;20493;-74
2022/01/14 06:28:18;;;;;;;17.98;9.18;;;5.10;77.70;;;;;;4997636;28;20512;-74
2022/01/14 06:30:44;;;;;;;17.98;9.48;;;5.20;77.90;;;;;;4998516;28;20073;-73
2022/01/14 06:33:09;;;;;;;16.73;9.05;;;5.20;77.70;;;;;;4994535;28;20030;-74
2022/01/14 06:35:35;;;;;;;17.02;10.13;;;5.10;77.30;;;;;;4998158;28;20612;-74
2022/01/14 06:38:01;;;;;;;18.33;10.05;;;5.00;76.80;;;;;;4998183;28;20026;-74
2022/01/14 06:40:28;;;;;;;21.23;12.02;;;4.90;77.40;;;;;;4998235;28;20431;-74
2022/01/14 06:42:54;;;;;;;19.98;10.85;;;4.80;77.40;;;;;;4998132;28;20029;-74
2022/01/14 06:45:20;;;;;;;21.98;11.07;;;4.60;77.40;;;;;;4994794;28;20389;-74
2022/01/14 06:47:47;;;;;;;22.77;12.80;;;4.50;77.50;;;;;;4997728;28;20081;-74
2022/01/14 06:50:12;;;;;;;22.48;12.20;;;4.30;78.30;;;;;;4999365;28;20046;-74
2022/01/14 06:52:38;;;;;;;20.00;11.32;;;4.20;78.10;;;;;;4997795;28;20031;-74
2022/01/14 06:55:04;;;;;;;18.15;10.43;;;4.10;78.60;;;;;;4998157;28;20026;-74
2022/01/14 06:57:30;;;;;;;17.02;9.27;;;4.30;79.40;;;;;;4996032;28;20026;-75
2022/01/14 06:59:56;;;;;;;17.58;9.32;;;4.40;79.40;;;;;;4996612;28;20069;-74
2022/01/14 07:02:21;;;;;;;15.77;9.40;;;4.50;78.60;;;;;;4997878;28;20127;-74
2022/01/14 07:04:47;;;;;;;14.63;8.50;;;4.40;78.10;;;;;;4996676;28;20046;-74
2022/01/14 07:07:12;;;;;;;15.82;8.32;;;4.40;78.20;;;;;;4997606;28;20389;-74
2022/01/14 07:09:55;;;;;;;14.70;8.88;;;4.40;78.20;;;;;;4996953;28;20014;-74
2022/01/14 07:12:35;;;;;;;15.82;8.43;;;4.40;78.10;;;;;;5011251;28;20147;-74
2022/01/14 07:15:01;;;;;;;18.50;10.77;;;4.40;78.20;;;;;;4999325;28;20026;-74
2022/01/14 07:17:27;;;;;;;18.33;9.35;;;4.30;77.40;;;;;;5000290;28;20030;-74
2022/01/14 07:19:57;;;;;;;14.05;7.93;;;4.20;78.20;;;;;;5000242;28;20074;-74
2022/01/14 07:22:23;;;;;;;16.77;8.40;;;4.40;79.10;;;;;;4998425;28;20044;-74
2022/01/14 07:24:48;;;;;;;14.32;7.88;;;4.50;78.50;;;;;;4996794;28;20026;-75
2022/01/14 07:27:15;;;;;;;16.08;8.50;;;4.50;78.50;;;;;;4998560;28;20031;-74
2022/01/14 07:29:41;;;;;;;16.25;8.57;;;4.50;78.10;;;;;;4999898;28;20054;-74
2022/01/14 07:32:07;;;;;;;16.88;8.80;;;4.60;78.30;;;;;;4999996;28;20038;-74
2022/01/14 07:34:34;;;;;;;15.77;8.40;;;4.60;78.20;;;;;;5010677;28;20053;-74
2022/01/14 07:37:00;;;;;;;15.02;8.52;;;4.60;78.00;;;;;;5019915;28;20029;-74
2022/01/14 07:39:25;;;;;;;17.73;10.50;;;4.60;77.80;;;;;;5018902;28;20036;-74
2022/01/14 07:41:52;;;;;;;16.80;9.02;;;4.60;77.50;;;;;;5019413;28;20480;-74
2022/01/14 07:44:18;;;;;;;17.90;9.15;;;4.50;77.60;;;;;;5017082;28;20029;-74
2022/01/14 07:46:43;;;;;;;17.30;8.77;;;4.50;78.10;;;;;;5016641;28;20080;-75
2022/01/14 07:49:10;;;;;;;16.23;9.30;;;4.50;77.70;;;;;;5019268;28;20026;-75
2022/01/14 07:51:36;;;;;;;14.88;8.57;;;4.50;77.50;;;;;;5021509;28;20049;-69
2022/01/14 07:54:05;;;;;;;15.57;8.75;;;4.40;77.70;;;;;;5021954;28;20021;-69
2022/01/14 07:56:52;;;;;;;15.20;8.80;;;4.40;77.40;;;;;;5023383;28;20041;-69
2022/01/14 07:59:22;;;;;;;15.57;8.48;;;4.40;77.90;;;;;;5001928;28;20476;-68
2022/01/14 08:01:50;;;;;;;13.90;7.75;;;4.40;77.60;;;;;;5016007;28;20077;-69
2022/01/14 08:04:18;;;;;;;15.25;8.57;;;4.30;77.40;;;;;;5018560;28;20502;-68
2022/01/14 08:06:50;;;;;;;17.63;8.98;;;4.40;78.00;;;;;;5014033;28;20551;-64
2022/01/14 08:09:17;;;;;;;14.95;8.18;;;4.40;78.10;;;;;;5015166;28;20513;-64
2022/01/14 08:11:44;;;;;;;21.45;11.60;;;4.40;77.40;;;;;;5016865;28;20041;-63
2022/01/14 08:14:10;;;;;;;19.98;10.55;;;4.40;77.40;;;;;;5015854;28;20113;-64
2022/01/14 08:16:35;;;;;;;17.58;10.15;;;4.20;77.30;;;;;;5017442;28;20753;-63
2022/01/14 08:19:01;;;;;;;15.50;9.02;;;4.20;78.20;;;;;;5013794;28;20036;-64
2022/01/14 08:21:27;;;;;;;17.25;9.65;;;4.40;78.60;;;;;;4993526;28;20105;-64
2022/01/14 08:23:52;;;;;;;16.45;9.00;;;4.50;79.10;;;;;;4997532;28;20162;-70
2022/01/14 08:26:18;;;;;;;15.02;8.27;;;4.50;77.90;;;;;;5009140;28;20029;-70
2022/01/14 08:28:44;;;;;;;16.65;9.43;;;4.60;78.20;;;;;;5003000;28;20030;-67
2022/01/14 08:31:10;;;;;;;20.60;11.90;;;4.80;78.60;;;;;;4995317;28;20040;-68
2022/01/14 08:33:35;;;;;;;18.80;10.80;;;4.80;77.30;;;;;;4994082;28;20493;-68
2022/01/14 08:36:02;;;;;;;18.58;10.32;;;4.80;77.60;;;;;;4993010;28;20050;-65
2022/01/14 08:38:27;;;;;;;15.68;9.27;;;5.00;77.30;;;;;;4985313;28;20393;-67
2022/01/14 08:40:53;;;;;;;17.63;9.93;;;5.10;77.70;;;;;;4996015;28;20040;-69
2022/01/14 08:43:19;;;;;;;17.52;9.98;;;5.10;76.60;;;;;;4993650;28;20088;-65
2022/01/14 08:45:46;;;;;;;18.58;9.80;;;5.30;77.30;;;;;;5009373;28;20034;-68
2022/01/14 08:48:12;;;;;;;20.42;11.60;;;5.40;76.90;;;;;;4990748;28;20400;-67
2022/01/14 08:50:38;;;;;;;17.45;10.05;;;5.20;75.30;;;;;;4993921;28;20030;-65
2022/01/14 08:53:07;;;;;;;19.42;11.05;;;4.80;74.70;;;;;;4999315;28;20045;-64
2022/01/14 08:55:35;;;;;;;19.42;11.10;;;4.60;75.30;;;;;;4994551;28;20065;-65
2022/01/14 08:58:01;;;;;;;22.52;11.38;;;4.30;75.40;;;;;;4992646;28;20078;-65
2022/01/14 09:00:27;;;;;;;18.25;10.45;;;3.90;76.10;;;;;;5012119;28;20067;-64
2022/01/14 09:02:54;;;;;;;19.60;10.00;;;3.70;77.20;;;;;;5004304;28;20105;-65
2022/01/14 09:05:20;;;;;;;16.73;9.55;;;3.60;78.00;;;;;;5002050;28;20034;-63
2022/01/14 09:07:47;;;;;;;20.40;10.10;;;3.50;78.40;;;;;;5004313;28;20427;-63
2022/01/14 09:10:13;;;;;;;22.27;10.85;;;3.30;78.70;;;;;;5006833;28;20451;-65
2022/01/14 09:12:40;;;;;;;24.08;12.07;;;3.30;79.80;;;;;;5006937;28;20030;-65
2022/01/14 09:15:07;;;;;;;19.63;10.52;;;3.30;80.00;;;;;;5006891;28;20022;-64
2022/01/14 09:17:34;;;;;;;16.40;9.48;;;3.30;80.40;;;;;;4995506;28;20509;-65
2022/01/14 09:20:02;;;;;;;14.93;8.38;;;3.30;80.40;;;;;;5001163;28;20057;-77
2022/01/14 09:22:30;;;;;;;17.02;8.98;;;3.50;81.00;;;;;;5006196;28;20030;-74
2022/01/14 09:24:58;;;;;;;17.25;9.73;;;3.40;80.10;;;;;;5009102;28;20025;-71
2022/01/14 09:27:24;;;;;;;14.75;8.30;;;3.50;80.60;;;;;;5013405;28;20172;-71
2022/01/14 09:29:49;;;;;;;20.60;9.95;;;3.30;80.30;;;;;;5010356;28;20112;-68
2022/01/14 09:32:15;;;;;;;15.00;8.20;;;3.20;80.90;;;;;;5000931;28;20148;-68
2022/01/14 09:34:40;;;;;;;23.50;11.52;;;3.30;81.40;;;;;;5007297;28;20046;-70
2022/01/14 09:37:06;;;;;;;22.77;10.98;;;3.30;81.90;;;;;;5002135;28;20037;-72
2022/01/14 09:39:33;;;;;;;22.45;11.70;;;3.10;81.30;;;;;;5000789;28;20026;-73
2022/01/14 09:42:01;;;;;;;18.58;9.13;;;3.10;81.80;;;;;;5011711;28;20112;-72
2022/01/14 09:44:26;;;;;;;19.42;10.70;;;3.20;82.20;;;;;;4999731;28;20252;-72
2022/01/14 09:46:53;;;;;;;26.42;13.25;;;3.20;81.80;;;;;;5000146;28;20476;-72
2022/01/14 09:49:19;;;;;;;25.88;11.77;;;3.10;81.10;;;;;;5006348;28;20034;-70
2022/01/14 09:51:46;;;;;;;23.65;11.60;;;3.00;82.20;;;;;;5010584;28;20038;-73
2022/01/14 09:54:13;;;;;;;22.35;12.07;;;3.00;82.50;;;;;;5009328;28;20080;-70
2022/01/14 09:56:41;;;;;;;19.13;9.80;;;3.10;82.70;;;;;;5009905;28;20037;-72
2022/01/14 09:59:07;;;;;;;18.38;10.07;;;3.10;83.10;;;;;;4996393;28;20046;-72
2022/01/14 10:01:41;;;;;;;20.42;10.30;;;3.20;83.00;;;;;;4997413;28;20459;-74
2022/01/14 10:04:12;;;;;;;;;;;3.40;83.30;;;;;;5007683;28;20026;-73
2022/01/14 10:06:43;;;;;;;15.38;8.57;;;3.60;82.70;;;;;;5001478;28;19909;-72
2022/01/14 10:09:21;;;;;;;16.67;8.70;;;3.70;82.60;;;;;;5005822;28;20056;-79
2022/01/14 10:12:04;;;;;;;18.48;9.90;;;3.80;82.20;;;;;;5005859;28;20076;-77
2022/01/14 10:14:30;;;;;;;21.15;10.35;;;3.70;81.30;;;;;;5001022;28;20424;-70
2022/01/14 10:16:57;;;;;;;23.80;11.60;;;3.60;81.20;;;;;;4999602;28;20069;-78
2022/01/14 10:19:25;;;;;;;19.67;10.02;;;3.60;81.70;;;;;;5007808;28;20040;-76
2022/01/14 10:21:51;;;;;;;18.88;9.82;;;3.60;82.00;;;;;;5000789;28;20084;-78
2022/01/14 10:24:18;;;;;;;19.67;10.52;;;3.70;82.20;;;;;;5017484;28;20076;-77
2022/01/14 10:26:52;;;;;;;17.77;9.77;;;3.80;82.10;;;;;;5016616;28;20545;-72
2022/01/14 10:29:39;;;;;;;30.15;13.57;;;3.80;82.00;;;;;;5017521;28;20114;-73
2022/01/14 10:32:08;;;;;;;19.83;10.68;;;3.80;81.30;;;;;;5016548;28;20045;-73
2022/01/14 10:34:35;;;;;;;22.83;11.65;;;3.80;82.90;;;;;;5020269;28;20053;-73
2022/01/14 10:37:15;;;;;;;23.10;11.63;;;3.80;81.00;;;;;;5019727;28;20076;-72
2022/01/14 10:39:52;;;;;;;25.50;12.60;;;3.80;81.20;;;;;;5020226;28;20029;-74
2022/01/14 10:42:33;;;;;;;18.58;9.90;;;3.80;81.60;;;;;;5009610;28;20411;-76
2022/01/14 10:45:22;;;;;;;18.60;9.55;;;3.90;81.50;;;;;;5009514;28;20120;-76
2022/01/14 10:47:55;;;;;;;18.50;9.10;;;4.00;81.90;;;;;;5009170;28;20116;-74
2022/01/14 10:50:33;;;;;;;18.10;9.32;;;4.20;81.80;;;;;;5001909;28;20092;-73
2022/01/14 10:53:01;;;;;;;19.73;9.77;;;4.20;81.50;;;;;;5005040;28;20036;-77
2022/01/14 10:55:33;;;;;;;21.50;10.95;;;4.40;82.00;;;;;;5011893;28;20034;-76
2022/01/14 10:58:02;;;;;;;16.38;9.20;;;4.50;81.00;;;;;;5011071;28;20108;-77
2022/01/14 11:00:28;;;;;;;17.65;10.18;;;4.50;81.00;;;;;;5011808;28;20022;-74
2022/01/14 11:02:54;;;;;;;22.02;11.02;;;4.50;80.60;;;;;;4996019;28;20022;-72
2022/01/14 11:05:23;;;;;;;20.02;10.63;;;4.50;80.50;;;;;;5005670;28;20069;-64
2022/01/14 11:07:50;;;;;;;27.98;14.55;;;4.50;80.20;;;;;;5008740;28;20046;-69
2022/01/14 11:10:27;;;;;;;21.95;11.45;;;4.40;79.90;;;;;;4998699;28;20088;-74
2022/01/14 11:12:57;;;;;;;25.58;11.85;;;4.40;80.60;;;;;;5019171;28;20062;-71
2022/01/14 11:15:25;;;;;;;22.60;11.60;;;4.40;80.40;;;;;;5017278;28;20022;-72
2022/01/14 11:17:54;;;;;;;21.48;11.13;;;4.50;81.00;;;;;;5017373;28;20034;-76
2022/01/14 11:20:31;;;;;;;25.95;13.05;;;4.70;80.90;;;;;;5016235;28;20053;-75
2022/01/14 11:23:15;;;;;;;21.73;10.77;;;4.70;80.30;;;;;;5016027;28;20022;-72
2022/01/14 11:26:01;;;;;;;29.75;15.20;;;4.80;80.60;;;;;;5018887;28;20543;-72
2022/01/14 11:28:30;;;;;;;24.67;12.65;;;4.40;78.60;;;;;;5019717;28;20021;-72
2022/01/14 11:30:57;;;;;;;22.02;12.10;;;4.30;80.10;;;;;;5016001;28;20403;-71
2022/01/14 11:33:41;;;;;;;25.73;13.07;;;4.30;80.40;;;;;;5020614;28;20026;-72
2022/01/14 11:36:08;;;;;;;23.38;12.32;;;4.20;80.50;;;;;;5019051;28;20048;-72
2022/01/14 11:38:37;;;;;;;23.45;12.95;;;4.40;80.90;;;;;;5018859;28;20028;-72
2022/01/14 11:41:04;;;;;;;23.58;11.80;;;4.40;80.60;;;;;;5019634;28;20507;-72
2022/01/14 11:43:41;;;;;;;20.15;11.13;;;4.50;80.40;;;;;;5018313;28;20468;-72
2022/01/14 11:46:10;;;;;;;20.40;11.90;;;4.50;80.70;;;;;;5021709;28;20022;-72
2022/01/14 11:48:42;;;;;;;28.00;12.73;;;4.50;81.10;;;;;;5015209;28;20014;-68
2022/01/14 11:51:10;;;;;;;25.58;12.75;;;4.50;79.80;;;;;;5013140;28;20033;-68
2022/01/14 11:53:39;;;;;;;20.15;11.15;;;4.30;79.90;;;;;;5000649;28;20396;-69
2022/01/14 11:56:25;;;;;;;20.88;10.38;;;4.50;81.10;;;;;;5017297;28;20076;-68
2022/01/14 11:58:50;;;;;;;20.70;10.48;;;4.60;80.90;;;;;;5004661;28;20033;-72
2022/01/14 12:01:36;;;;;;;22.95;10.90;;;4.70;81.20;;;;;;5001024;28;20033;-71
2022/01/14 12:04:02;;;;;;;18.58;10.38;;;4.80;80.20;;;;;;5015670;28;20034;-71
2022/01/14 12:06:50;;;;;;;18.92;9.93;;;4.80;80.10;;;;;;5004338;28;20032;-69
2022/01/14 12:09:22;;;;;;;16.90;8.93;;;4.80;80.00;;;;;;5005660;28;20022;-70
2022/01/14 12:12:22;;;;;;;20.90;11.05;;;4.90;80.10;;;;;;4991593;28;20031;-70
2022/01/14 12:14:56;;;;;;;19.90;9.52;;;4.80;79.40;;;;;;5013777;28;20071;-72
2022/01/14 12:17:41;;;;;;;18.33;9.50;;;4.60;79.00;;;;;;5010103;28;20030;-73
2022/01/14 12:20:11;;;;;;;17.80;9.15;;;4.60;79.70;;;;;;5005081;28;20025;-73
2022/01/14 12:22:37;;;;;;;19.20;10.40;;;4.60;80.20;;;;;;5006384;28;20030;-74
2022/01/14 12:25:04;;;;;;;20.45;9.88;;;4.70;80.00;;;;;;5009279;28;20027;-73
2022/01/14 12:27:42;;;;;;;22.80;11.10;;;4.60;80.00;;;;;;5010870;28;20018;-75
2022/01/14 12:30:12;;;;;;;20.15;10.35;;;4.60;80.00;;;;;;5008807;28;20022;-74
2022/01/14 12:32:41;;;;;;;21.50;11.80;;;4.50;80.00;;;;;;5007728;28;20033;-74
2022/01/14 12:35:09;;;;;;;24.00;11.90;;;4.60;80.30;;;;;;5005063;28;20217;-75
2022/01/14 12:37:41;;;;;;;19.45;9.85;;;4.50;80.90;;;;;;5007752;28;20038;-71
2022/01/14 12:40:14;;;;;;;22.35;11.10;;;4.60;80.40;;;;;;4996563;28;20109;-74
2022/01/14 12:42:46;;;;;;;25.48;13.32;;;4.50;79.70;;;;;;4998972;28;20025;-73
2022/01/14 12:45:51;;;;;;;24.10;11.43;;;4.40;80.10;;;;;;5006260;28;20746;-73
2022/01/14 12:48:40;;;;;;;24.55;12.05;;;4.30;80.00;;;;;;5002058;28;20461;-71
2022/01/14 12:51:15;;;;;;;19.70;9.68;;;4.30;80.50;;;;;;4996131;28;20042;-70
2022/01/14 12:53:49;;;;;;;16.10;8.93;;;4.30;80.50;;;;;;5011355;28;20029;-75
2022/01/14 12:56:17;;;;;;;23.13;11.35;;;4.40;81.10;;;;;;5005089;28;20029;-76
2022/01/14 12:59:01;;;;;;;20.35;10.07;;;4.50;80.80;;;;;;5003634;28;20034;-76
2022/01/14 13:01:38;;;;;;;19.10;9.82;;;4.50;80.80;;;;;;5002490;28;20504;-80
2022/01/14 13:04:08;;;;;;;21.55;10.65;;;4.40;80.20;;;;;;5008223;28;20018;-75
2022/01/14 13:06:41;;;;;;;21.23;10.55;;;4.30;80.20;;;;;;5009692;28;20033;-74
2022/01/14 13:09:07;;;;;;;22.52;11.35;;;4.30;80.70;;;;;;5001262;28;20030;-72
2022/01/14 13:11:51;;;;;;;19.73;9.65;;;4.30;80.60;;;;;;5005845;28;20037;-72
2022/01/14 13:14:27;;;;;;;20.40;8.93;;;4.30;80.90;;;;;;5007032;28;20038;-73